createdAt,value
2019-02-07T00:00:40.644Z,19.97
2019-02-07T00:03:14.461Z,21.90
2019-02-07T00:05:48.838Z,18.90
2019-02-07T00:10:59.332Z,17.73
2019-02-07T00:13:30.704Z,19.63
2019-02-07T00:16:11.376Z,18.63
2019-02-07T00:18:43.350Z,20.93
2019-02-07T00:21:25.001Z,16.00
2019-02-07T00:24:00.245Z,21.20
2019-02-07T00:26:35.309Z,17.97
2019-02-07T00:29:04.880Z,20.10
2019-02-07T00:31:38.880Z,19.30
2019-02-07T00:34:09.754Z,18.93
2019-02-07T00:36:41.542Z,17.57
2019-02-07T00:42:27.015Z,18.10
2019-02-07T00:45:00.861Z,15.77
2019-02-07T00:48:08.654Z,19.20
2019-02-07T00:50:38.980Z,20.00
2019-02-07T00:53:10.806Z,17.50
2019-02-07T00:55:46.790Z,17.67
2019-02-07T00:58:19.440Z,18.57
2019-02-07T01:01:32.667Z,18.67
2019-02-07T01:04:04.207Z,16.47
2019-02-07T01:09:25.543Z,19.57
2019-02-07T01:11:57.131Z,19.83
2019-02-07T01:15:19.729Z,17.00
2019-02-07T01:17:50.390Z,16.60
2019-02-07T01:20:21.039Z,16.30
2019-02-07T01:22:57.154Z,17.77
2019-02-07T01:25:30.925Z,18.43
2019-02-07T01:28:32.342Z,17.70
2019-02-07T01:31:09.088Z,18.73
2019-02-07T01:33:38.901Z,19.17
2019-02-07T01:37:03.398Z,16.53
2019-02-07T01:39:31.086Z,17.17
2019-02-07T01:42:04.419Z,19.03
2019-02-07T01:44:39.469Z,15.70
2019-02-07T01:47:12.542Z,15.17
2019-02-07T01:49:44.662Z,16.43
2019-02-07T01:52:26.278Z,16.23
2019-02-07T01:54:57.583Z,17.40
2019-02-07T01:58:48.513Z,15.37
2019-02-07T02:00:03.430Z,13.73
2019-02-07T02:02:35.127Z,17.80
2019-02-07T02:05:09.703Z,16.60
2019-02-07T02:07:42.941Z,17.93
2019-02-07T02:16:45.443Z,14.30
2019-02-07T02:19:15.909Z,17.00
2019-02-07T02:21:47.665Z,14.13
2019-02-07T02:25:16.293Z,15.03
2019-02-07T02:27:48.021Z,14.07
2019-02-07T02:33:17.863Z,15.87
2019-02-07T02:38:35.964Z,17.03
2019-02-07T02:41:07.203Z,14.10
2019-02-07T02:43:39.043Z,15.13
2019-02-07T02:46:48.471Z,14.90
2019-02-07T02:49:23.464Z,15.13
2019-02-07T02:51:53.893Z,18.30
2019-02-07T02:54:36.340Z,16.80
2019-02-07T02:57:05.057Z,15.30
2019-02-07T02:59:35.662Z,16.57
2019-02-07T03:02:10.264Z,18.87
2019-02-07T03:04:53.672Z,19.13
2019-02-07T03:07:29.913Z,16.10
2019-02-07T03:10:17.911Z,20.10
2019-02-07T03:12:51.186Z,15.37
2019-02-07T03:15:23.062Z,16.57
2019-02-07T03:18:05.990Z,18.13
2019-02-07T03:20:55.723Z,17.97
2019-02-07T03:23:37.860Z,15.43
2019-02-07T03:26:19.242Z,15.83
2019-02-07T03:28:57.944Z,17.87
2019-02-07T03:31:51.788Z,19.00
2019-02-07T03:34:24.421Z,18.67
2019-02-07T03:37:03.941Z,19.87
2019-02-07T03:39:40.706Z,19.10
2019-02-07T03:42:27.786Z,17.77
2019-02-07T03:45:08.759Z,19.27
2019-02-07T03:47:38.421Z,21.30
2019-02-07T03:50:09.007Z,19.47
2019-02-07T03:52:41.672Z,17.97
2019-02-07T03:55:14.161Z,19.43
2019-02-07T03:58:01.362Z,21.07
2019-02-07T04:00:33.608Z,16.63
2019-02-07T04:03:12.922Z,20.07
2019-02-07T04:05:45.551Z,18.87
2019-02-07T04:08:32.506Z,18.67
2019-02-07T04:11:19.439Z,19.60
2019-02-07T04:13:52.589Z,19.67
2019-02-07T04:16:28.361Z,22.20
2019-02-07T04:19:06.479Z,23.17
2019-02-07T04:21:47.313Z,17.17
2019-02-07T04:24:41.154Z,19.63
2019-02-07T04:27:18.327Z,20.20
2019-02-07T04:29:56.708Z,19.53
2019-02-07T04:32:36.711Z,18.23
2019-02-07T04:35:16.028Z,19.63
2019-02-07T04:37:47.229Z,20.20
2019-02-07T04:40:37.384Z,18.07
2019-02-07T04:43:14.120Z,20.60
2019-02-07T04:45:52.513Z,26.50
2019-02-07T04:48:29.567Z,19.27
2019-02-07T04:51:05.199Z,19.07
2019-02-07T04:53:41.212Z,20.27
2019-02-07T04:56:14.954Z,19.63
2019-02-07T04:58:50.683Z,19.10
2019-02-07T05:01:28.205Z,19.90
2019-02-07T05:04:12.718Z,19.83
2019-02-07T05:06:53.139Z,18.80
2019-02-07T05:09:31.856Z,20.00
2019-02-07T05:12:02.545Z,20.90
2019-02-07T05:14:48.398Z,23.00
2019-02-07T05:17:24.017Z,20.90
2019-02-07T05:20:09.540Z,22.60
2019-02-07T05:22:41.117Z,21.67
2019-02-07T05:25:18.829Z,21.40
2019-02-07T05:28:10.313Z,22.77
2019-02-07T05:31:00.892Z,21.87
2019-02-07T05:33:51.285Z,22.50
2019-02-07T05:36:25.644Z,21.27
2019-02-07T05:39:06.467Z,24.10
2019-02-07T05:41:51.026Z,20.57
2019-02-07T05:44:22.605Z,23.40
2019-02-07T05:46:57.729Z,24.50
2019-02-07T05:49:37.511Z,20.73
2019-02-07T05:52:15.849Z,20.77
2019-02-07T05:55:05.864Z,20.07
2019-02-07T05:57:50.287Z,22.67
2019-02-07T06:00:32.786Z,24.13
2019-02-07T06:03:04.899Z,27.00
2019-02-07T06:05:54.574Z,23.37
2019-02-07T06:08:35.577Z,26.27
2019-02-07T06:11:23.466Z,24.87
2019-02-07T06:13:53.337Z,26.27
2019-02-07T06:16:33.692Z,27.00
2019-02-07T06:19:20.741Z,28.80
2019-02-07T06:21:57.902Z,28.43
2019-02-07T06:24:38.120Z,30.10
2019-02-07T06:27:18.820Z,25.47
2019-02-07T06:29:51.211Z,24.53
2019-02-07T06:32:30.842Z,26.40
2019-02-07T06:35:18.522Z,24.40
2019-02-07T06:37:52.169Z,24.33
2019-02-07T06:40:29.895Z,23.57
2019-02-07T06:43:18.766Z,27.07
2019-02-07T06:45:50.214Z,24.00
2019-02-07T06:48:35.685Z,23.43
2019-02-07T06:51:07.970Z,25.33
2019-02-07T06:53:42.197Z,19.60
2019-02-07T06:56:34.247Z,17.60
2019-02-07T06:59:15.858Z,66.27
2019-02-07T07:01:48.314Z,24.80
2019-02-07T07:04:27.739Z,21.20
2019-02-07T07:07:29.388Z,21.03
2019-02-07T07:10:15.289Z,17.60
2019-02-07T07:13:04.184Z,19.00
2019-02-07T07:15:42.372Z,20.60
2019-02-07T07:18:14.907Z,16.87
2019-02-07T07:21:05.959Z,16.40
2019-02-07T07:23:40.432Z,16.37
2019-02-07T07:26:26.525Z,16.47
2019-02-07T07:29:14.171Z,16.23
2019-02-07T07:31:49.479Z,12.33
2019-02-07T07:34:23.796Z,15.70
2019-02-07T07:37:04.364Z,16.03
2019-02-07T07:39:51.299Z,14.30
2019-02-07T07:42:39.252Z,13.87
2019-02-07T07:45:31.443Z,12.73
2019-02-07T07:48:19.307Z,14.23
2019-02-07T07:51:05.958Z,16.23
2019-02-07T07:53:54.015Z,12.47
2019-02-07T07:56:28.490Z,14.30
2019-02-07T07:59:06.119Z,12.97
2019-02-07T08:01:38.295Z,14.07
2019-02-07T08:04:15.735Z,14.03
2019-02-07T08:06:52.067Z,11.73
2019-02-07T08:09:46.158Z,15.00
2019-02-07T08:12:37.621Z,12.10
2019-02-07T08:15:34.464Z,12.60
2019-02-07T08:18:19.585Z,14.00
2019-02-07T08:21:08.104Z,13.67
2019-02-07T08:23:52.303Z,15.53
2019-02-07T08:26:24.924Z,12.50
2019-02-07T08:28:58.344Z,15.70
2019-02-07T08:31:31.005Z,13.30
2019-02-07T08:34:22.497Z,13.73
2019-02-07T08:37:07.295Z,15.93
2019-02-07T08:39:39.606Z,15.23
2019-02-07T08:42:18.975Z,16.83
2019-02-07T08:45:03.006Z,15.50
2019-02-07T08:47:34.536Z,14.17
2019-02-07T08:50:20.395Z,15.00
2019-02-07T08:52:58.625Z,14.38
2019-02-07T08:55:49.992Z,16.73
2019-02-07T08:58:27.993Z,14.85
2019-02-07T09:01:20.580Z,13.87
2019-02-07T09:04:14.281Z,13.30
2019-02-07T09:06:44.870Z,14.27
2019-02-07T09:09:36.172Z,15.33
2019-02-07T09:12:07.486Z,15.90
2019-02-07T09:14:52.254Z,15.63
2019-02-07T09:17:38.439Z,16.32
2019-02-07T09:20:11.689Z,19.77
2019-02-07T09:23:23.962Z,15.07
2019-02-07T09:25:57.735Z,12.70
2019-02-07T09:28:44.741Z,14.57
2019-02-07T09:31:32.269Z,15.67
2019-02-07T09:34:10.459Z,12.33
2019-02-07T09:37:02.559Z,13.60
2019-02-07T09:39:33.127Z,14.50
2019-02-07T09:42:11.138Z,12.00
2019-02-07T09:44:58.553Z,10.47
2019-02-07T09:47:35.885Z,15.27
2019-02-07T09:50:25.343Z,12.53
2019-02-07T09:53:00.093Z,10.27
2019-02-07T09:55:32.944Z,10.88
2019-02-07T09:58:16.032Z,8.33
2019-02-07T10:00:57.897Z,10.70
2019-02-07T10:03:33.387Z,7.97
2019-02-07T10:06:17.662Z,9.63
2019-02-07T10:09:06.674Z,8.18
2019-02-07T10:11:53.029Z,7.93
2019-02-07T10:14:39.528Z,8.43
2019-02-07T10:17:29.269Z,5.73
2019-02-07T10:20:10.992Z,7.53
2019-02-07T10:22:50.062Z,8.73
2019-02-07T10:25:21.261Z,13.03
2019-02-07T10:27:58.795Z,11.00
2019-02-07T10:30:38.037Z,9.85
2019-02-07T10:33:12.605Z,10.80
2019-02-07T10:35:49.202Z,7.80
2019-02-07T10:38:30.356Z,7.17
2019-02-07T10:41:02.388Z,5.93
2019-02-07T10:43:47.794Z,6.80
2019-02-07T10:46:30.217Z,8.17
2019-02-07T10:49:07.760Z,11.87
2019-02-07T10:51:40.436Z,15.73
2019-02-07T10:54:22.308Z,14.10
2019-02-07T10:56:56.222Z,9.23
2019-02-07T10:59:36.980Z,11.70
2019-02-07T11:02:29.452Z,8.77
2019-02-07T11:05:03.731Z,13.70
2019-02-07T11:07:59.451Z,13.90
2019-02-07T11:10:43.735Z,10.97
2019-02-07T11:13:20.170Z,6.80
2019-02-07T11:15:57.910Z,15.10
2019-02-07T11:18:55.356Z,9.37
2019-02-07T11:21:41.693Z,14.63
2019-02-07T11:24:15.972Z,16.53
2019-02-07T11:27:03.851Z,13.53
2019-02-07T11:29:52.170Z,8.93
2019-02-07T11:32:42.704Z,10.63
2019-02-07T11:35:14.022Z,12.80
2019-02-07T11:38:02.256Z,6.57
2019-02-07T11:40:48.319Z,9.23
2019-02-07T11:43:19.559Z,11.20
2019-02-07T11:45:51.827Z,12.17
2019-02-07T11:48:51.259Z,11.30
2019-02-07T11:51:27.143Z,11.40
2019-02-07T11:54:00.363Z,12.40
2019-02-07T11:56:48.352Z,13.50
2019-02-07T11:59:43.545Z,13.37
2019-02-07T12:02:22.544Z,9.93
2019-02-07T12:04:59.504Z,11.10
2019-02-07T12:07:42.759Z,11.53
2019-02-07T12:10:26.961Z,10.07
2019-02-07T12:13:18.418Z,12.80
2019-02-07T12:16:03.035Z,8.20
2019-02-07T12:19:01.540Z,10.50
2019-02-07T12:21:44.705Z,10.53
2019-02-07T12:24:29.607Z,7.60
2019-02-07T12:30:23.489Z,12.73
2019-02-07T12:33:01.750Z,10.93
2019-02-07T12:35:45.945Z,9.77
2019-02-07T12:38:28.448Z,9.17
2019-02-07T12:41:02.672Z,11.00
2019-02-07T12:43:40.010Z,10.40
2019-02-07T12:46:30.604Z,11.00
2019-02-07T12:49:04.813Z,12.93
2019-02-07T12:51:51.920Z,15.13
2019-02-07T12:54:31.120Z,11.33
2019-02-07T12:57:08.904Z,7.47
2019-02-07T12:59:45.499Z,12.17
2019-02-07T13:02:16.357Z,9.80
2019-02-07T13:04:54.247Z,9.23
2019-02-07T13:07:31.998Z,12.13
2019-02-07T13:10:08.440Z,7.47
2019-02-07T13:12:53.602Z,6.43
2019-02-07T13:15:35.988Z,8.73
2019-02-07T13:18:26.309Z,13.30
2019-02-07T13:21:04.661Z,10.13
2019-02-07T13:23:51.892Z,5.73
2019-02-07T13:26:43.400Z,7.80
2019-02-07T13:29:32.822Z,5.00
2019-02-07T13:32:12.897Z,9.80
2019-02-07T13:34:46.392Z,11.13
2019-02-07T13:37:31.431Z,10.83
2019-02-07T13:40:20.109Z,10.05
2019-02-07T13:43:01.167Z,8.60
2019-02-07T13:45:28.751Z,9.90
2019-02-07T13:48:07.340Z,9.00
2019-02-07T13:50:55.052Z,11.33
2019-02-07T13:53:26.121Z,9.60
2019-02-07T13:55:59.662Z,10.43
2019-02-07T13:58:35.913Z,6.13
2019-02-07T14:01:06.551Z,7.77
2019-02-07T14:03:39.618Z,8.73
2019-02-07T14:06:30.817Z,12.53
2019-02-07T14:09:12.259Z,10.47
2019-02-07T14:11:42.997Z,9.23
2019-02-07T14:14:16.653Z,9.07
2019-02-07T14:16:57.784Z,9.33
2019-02-07T14:19:39.374Z,7.03
2019-02-07T14:22:21.402Z,16.10
2019-02-07T14:25:26.997Z,8.37
2019-02-07T14:28:18.340Z,7.67
2019-02-07T14:31:32.713Z,7.73
2019-02-07T14:34:03.811Z,11.73
2019-02-07T14:39:55.379Z,12.43
2019-02-07T14:45:30.495Z,10.53
2019-02-07T14:48:42.108Z,8.50
2019-02-07T14:51:13.086Z,5.23
2019-02-07T14:54:33.519Z,11.03
2019-02-07T14:57:02.509Z,10.63
2019-02-07T15:02:41.883Z,10.90
2019-02-07T15:05:47.269Z,11.65
2019-02-07T15:08:17.807Z,9.47
2019-02-07T15:11:24.578Z,5.43
2019-02-07T15:13:53.731Z,5.70
2019-02-07T15:16:53.987Z,6.37
2019-02-07T15:19:26.636Z,7.10
2019-02-07T15:22:31.989Z,6.80
2019-02-07T15:25:04.032Z,8.13
2019-02-07T15:28:00.044Z,5.00
2019-02-07T15:30:28.612Z,12.63
2019-02-07T15:33:30.435Z,8.17
2019-02-07T15:35:58.859Z,10.80
2019-02-07T15:39:15.828Z,10.07
2019-02-07T15:41:50.766Z,10.98
2019-02-07T15:44:49.458Z,6.83
2019-02-07T16:30:30.713Z,13.57
2019-02-07T16:33:26.835Z,15.77
2019-02-07T16:35:56.010Z,8.40
2019-02-07T16:38:38.195Z,9.27
2019-02-07T16:41:10.610Z,9.67
2019-02-07T16:43:48.854Z,15.97
2019-02-07T16:46:38.731Z,8.53
2019-02-07T16:49:20.704Z,8.85
2019-02-07T16:52:05.167Z,8.13
2019-02-07T16:55:12.334Z,9.87
2019-02-07T16:58:00.541Z,10.47
2019-02-07T17:01:03.884Z,10.53
2019-02-07T17:03:33.755Z,9.40
2019-02-07T17:06:21.098Z,11.00
2019-02-07T17:08:51.583Z,8.17
2019-02-07T17:12:05.550Z,8.63
2019-02-07T17:14:34.467Z,13.13
2019-02-07T17:20:14.621Z,8.10
2019-02-07T17:23:21.159Z,8.97
2019-02-07T17:25:52.204Z,7.97
2019-02-07T17:29:12.883Z,9.70
2019-02-07T17:31:46.046Z,10.17
2019-02-07T17:37:11.299Z,8.10
2019-02-07T17:39:45.745Z,15.20
2019-02-07T17:42:28.009Z,11.73
2019-02-07T17:45:18.722Z,16.60
2019-02-07T17:47:44.635Z,9.27
2019-02-07T17:50:29.469Z,10.30
2019-02-07T17:53:06.337Z,11.57
2019-02-07T17:55:38.249Z,11.83
2019-02-07T17:58:15.168Z,22.53
2019-02-07T18:00:52.471Z,25.07
2019-02-07T18:03:26.445Z,18.13
2019-02-07T18:06:03.002Z,17.07
2019-02-07T18:08:39.405Z,13.97
2019-02-07T18:11:42.235Z,14.40
2019-02-07T18:17:50.637Z,9.20
2019-02-07T18:20:30.554Z,10.57
2019-02-07T18:30:02.585Z,8.07
2019-02-07T18:32:38.823Z,9.00
2019-02-07T18:35:27.185Z,6.60
2019-02-07T18:37:56.277Z,7.07
2019-02-07T18:41:16.579Z,4.50
2019-02-07T18:43:54.181Z,6.23
2019-02-07T18:47:19.875Z,8.60
2019-02-07T18:49:54.401Z,9.43
2019-02-07T18:59:15.213Z,6.53
2019-02-07T19:01:59.095Z,6.10
2019-02-07T19:04:36.938Z,6.07
2019-02-07T19:07:10.645Z,6.00
2019-02-07T19:09:42.230Z,5.77
2019-02-07T19:12:18.686Z,9.63
2019-02-07T19:14:49.204Z,4.97
2019-02-07T19:17:33.873Z,7.20
2019-02-07T19:20:27.004Z,6.87
2019-02-07T19:22:57.588Z,8.40
2019-02-07T19:25:28.316Z,7.80
2019-02-07T19:27:59.650Z,3.90
2019-02-07T19:30:36.386Z,4.63
2019-02-07T19:33:11.096Z,2.43
2019-02-07T19:35:48.617Z,9.20
2019-02-07T19:38:53.335Z,26.57
2019-02-07T19:41:28.407Z,10.33
2019-02-07T19:44:01.328Z,3.87
2019-02-07T19:46:35.332Z,2.30
2019-02-07T19:49:35.514Z,2.77
2019-02-07T19:52:08.545Z,5.27
2019-02-07T19:54:41.444Z,4.53
2019-02-07T19:57:19.465Z,2.20
2019-02-07T20:00:18.285Z,6.10
2019-02-07T20:02:58.181Z,2.50
2019-02-07T20:05:56.086Z,2.57
2019-02-07T20:08:31.504Z,2.47
2019-02-07T20:14:07.907Z,1.60
2019-02-07T20:17:27.459Z,3.43
2019-02-07T20:19:17.395Z,1.37
2019-02-07T20:21:51.238Z,4.60
2019-02-07T20:24:24.352Z,3.60
2019-02-07T20:26:57.265Z,2.40
2019-02-07T20:30:14.354Z,4.83
2019-02-07T20:32:56.302Z,4.73
2019-02-07T20:35:31.096Z,3.87
2019-02-07T20:38:07.908Z,4.73
2019-02-07T20:40:43.741Z,4.00
2019-02-07T20:43:54.339Z,7.70
2019-02-07T20:46:25.621Z,3.83
2019-02-07T20:49:32.257Z,6.43
2019-02-07T20:52:13.461Z,4.30
2019-02-07T20:55:22.303Z,3.27
2019-02-07T20:57:53.840Z,3.70
2019-02-07T21:00:56.282Z,4.50
2019-02-07T21:03:33.667Z,4.90
2019-02-07T21:06:38.298Z,4.90
2019-02-07T21:09:22.477Z,5.50
2019-02-07T21:11:50.222Z,3.07
2019-02-07T21:14:25.502Z,3.90
2019-02-07T21:16:58.576Z,4.97
2019-02-07T21:19:34.207Z,5.10
2019-02-07T21:22:15.776Z,10.90
2019-02-07T21:24:51.978Z,6.50
2019-02-07T21:27:26.562Z,5.20
2019-02-07T21:29:58.222Z,6.47
2019-02-07T21:32:34.339Z,6.80
2019-02-07T21:35:42.101Z,5.67
2019-02-07T21:38:15.599Z,6.50
2019-02-07T21:40:52.118Z,4.40
2019-02-07T21:43:27.580Z,5.47
2019-02-07T21:45:58.388Z,4.50
2019-02-07T21:48:32.674Z,4.93
2019-02-07T21:51:05.254Z,7.90
2019-02-07T21:53:53.081Z,4.57
2019-02-07T21:56:22.841Z,6.90
2019-02-07T21:59:45.719Z,9.93
2019-02-07T22:02:17.246Z,4.67
2019-02-07T22:10:37.683Z,5.90
2019-02-07T22:13:16.278Z,3.50
2019-02-07T22:15:54.331Z,7.37
2019-02-07T22:18:25.096Z,6.13
2019-02-07T22:20:55.929Z,9.70
2019-02-07T22:23:34.298Z,8.73
2019-02-07T22:26:09.215Z,7.73
2019-02-07T22:29:07.821Z,5.20
2019-02-07T22:31:44.622Z,7.07
2019-02-07T22:35:03.880Z,3.90
2019-02-07T22:37:38.351Z,8.37
2019-02-07T22:43:25.583Z,6.40
2019-02-07T22:46:35.281Z,6.03
2019-02-07T22:49:11.257Z,5.27
2019-02-07T22:51:42.214Z,5.30
2019-02-07T22:54:23.640Z,2.90
2019-02-07T22:57:23.011Z,6.73
2019-02-07T22:59:56.155Z,8.60
2019-02-07T23:02:30.061Z,7.00
2019-02-07T23:05:03.124Z,7.43
2019-02-07T23:07:38.720Z,3.87
2019-02-07T23:10:21.995Z,3.37
2019-02-07T23:13:08.868Z,5.87
2019-02-07T23:15:42.519Z,5.57
2019-02-07T23:18:14.209Z,4.37
2019-02-07T23:20:50.762Z,5.97
2019-02-07T23:23:19.768Z,5.37
2019-02-07T23:25:55.283Z,3.50
2019-02-07T23:28:27.108Z,5.00
2019-02-07T23:30:56.142Z,3.30
2019-02-07T23:33:25.093Z,3.93
2019-02-07T23:35:54.400Z,7.27
2019-02-07T23:38:26.935Z,7.43
2019-02-07T23:41:01.215Z,6.23
2019-02-07T23:43:38.175Z,4.57
2019-02-07T23:46:09.278Z,5.13
2019-02-07T23:48:45.139Z,5.10
2019-02-07T23:51:19.547Z,3.87
2019-02-07T23:53:51.821Z,4.27
2019-02-07T23:56:28.240Z,3.30
2019-02-07T23:59:02.810Z,4.03
